Time;durP1;ratioP1;P1;durP2;ratioP2;P2;SDS_P1;SDS_P2;PMS_P1;PMS_P2;Temp;Humidity;BMP_temperature;BMP_pressure;BME280_temperature;BME280_humidity;BME280_pressure;Samples;Min_cycle;Max_cycle;Signal;HPM_P1;HPM_P2
2023/03/28 07:23:12;;;;;;;20.33;10.07;;;;;;;-145.79;66.50;79858.00;5315562;27;20351;-75
2023/03/28 07:25:43;;;;;;;17.17;11.43;;;;;;;-145.79;66.86;79851.66;5313624;28;20429;-76
2023/03/28 07:28:15;;;;;;;14.18;9.30;;;;;;;-145.79;66.67;79858.00;5320371;28;20790;-75
2023/03/28 07:30:46;;;;;;;10.75;9.23;;;;;;;-145.79;67.30;79838.91;5312103;28;20024;-76
2023/03/28 07:33:17;;;;;;;15.18;9.75;;;;;;;-145.79;66.89;79834.69;5317456;28;20467;-76
2023/03/28 07:35:49;;;;;;;15.07;8.57;;;;;;;-145.79;66.71;79815.59;5315073;28;20029;-76
2023/03/28 07:38:20;;;;;;;15.57;8.98;;;;;;;-145.79;65.89;79798.63;5317132;28;20035;-76
2023/03/28 07:40:52;;;;;;;14.43;7.93;;;;;;;-145.79;65.83;79779.53;5319281;28;20023;-74
2023/03/28 07:43:23;;;;;;;13.70;8.55;;;;;;;-145.79;65.17;79764.69;5297889;28;20118;-75
2023/03/28 07:46:05;;;;;;;9.38;8.10;;;;;;;-145.79;64.76;79751.97;5297643;28;20039;-73
2023/03/28 07:48:37;;;;;;;11.65;8.27;;;;;;;-145.79;64.22;79743.47;5314215;28;20110;-75
2023/03/28 07:51:09;;;;;;;23.25;8.30;;;;;;;-145.79;63.80;79747.72;5315797;28;20169;-75
2023/03/28 07:53:41;;;;;;;8.82;5.93;;;;;;;-145.79;63.54;79730.75;5310790;28;20776;-74
2023/03/28 07:56:13;;;;;;;9.43;6.90;;;;;;;-145.79;62.89;79722.28;5319306;28;20051;-74
2023/03/28 07:58:44;;;;;;;18.05;6.70;;;;;;;-145.79;63.04;79722.28;5310796;28;20494;-75
2023/03/28 08:01:17;;;;;;;10.23;6.85;;;;;;;-145.79;63.54;79709.53;5317427;28;20024;-75
2023/03/28 08:03:49;;;;;;;14.05;6.22;;;;;;;-145.79;62.48;79703.19;5316764;28;20032;-76
2023/03/28 08:06:21;;;;;;;50.97;40.67;;;;;;;-145.79;62.54;79694.69;5318303;28;20028;-76
2023/03/28 08:08:52;;;;;;;18.00;13.70;;;;;;;-145.79;62.08;79696.81;5319803;28;20061;-76
2023/03/28 08:11:24;;;;;;;12.38;6.65;;;;;;;-145.79;62.08;79673.50;5317690;28;20032;-76
2023/03/28 08:13:55;;;;;;;8.73;7.00;;;;;;;-145.79;62.55;79665.00;5315295;28;20451;-76
2023/03/28 08:16:28;;;;;;;11.77;6.47;;;;;;;-145.79;62.77;79650.16;5318217;28;20063;-77
2023/03/28 08:18:59;;;;;;;11.70;6.22;;;;;;;-145.79;62.01;79652.28;5318627;28;20138;-76
2023/03/28 08:21:31;;;;;;;9.80;5.90;;;;;;;-145.79;61.23;79652.28;5307492;28;20076;-75
2023/03/28 08:24:06;;;;;;;12.18;6.28;;;;;;;-145.79;61.22;79639.56;5312184;28;20492;-76
2023/03/28 08:26:37;;;;;;;;;;;;;;;-145.79;61.40;79616.22;5319262;28;20028;-75
2023/03/28 08:29:10;;;;;;;11.88;5.38;;;;;;;-145.79;60.38;79626.84;5319714;28;20290;-73
2023/03/28 08:31:41;;;;;;;7.68;5.18;;;;;;;-145.79;59.92;79633.19;5319477;28;20089;-75
2023/03/28 08:34:13;;;;;;;7.75;4.40;;;;;;;-145.79;59.39;79622.59;5303957;28;20043;-76
2023/03/28 08:36:44;;;;;;;8.50;4.63;;;;;;;-145.79;60.06;79614.09;5283545;28;20437;-75
2023/03/28 08:39:16;;;;;;;21.38;7.75;;;;;;;-145.79;60.64;79603.50;5284892;28;20032;-75
2023/03/28 08:42:04;;;;;;;8.27;5.00;;;;;;;-145.79;60.21;79597.13;5283369;28;20028;-75
2023/03/28 08:44:50;;;;;;;11.50;5.32;;;;;;;-145.79;59.87;79588.66;5283991;28;20024;-74
2023/03/28 08:47:29;;;;;;;9.57;4.30;;;;;;;-145.79;59.63;79573.81;5283239;28;20056;-75
2023/03/28 08:50:11;;;;;;;10.93;4.95;;;;;;;-145.79;59.19;79575.94;5284124;28;20036;-73
2023/03/28 08:52:43;;;;;;;7.93;4.05;;;;;;;-145.79;57.70;79575.94;5294420;28;20455;-75
2023/03/28 08:55:36;;;;;;;10.30;4.45;;;;;;;-145.79;57.91;79567.44;5294012;28;20058;-74
2023/03/28 08:58:20;;;;;;;11.13;4.18;;;;;;;-145.79;57.75;79556.84;5300361;28;20036;-74
2023/03/28 09:00:51;;;;;;;9.63;3.67;;;;;;;-145.79;56.99;79556.84;5299866;28;20040;-73
2023/03/28 09:03:23;;;;;;;10.13;3.90;;;;;;;-145.79;56.27;79556.84;5295615;28;20028;-75
2023/03/28 09:06:01;;;;;;;8.40;4.40;;;;;;;-145.79;56.94;79552.59;5284130;28;20076;-75
2023/03/28 09:08:41;;;;;;;13.52;5.00;;;;;;;-145.79;57.32;79544.13;5301251;28;20561;-76
2023/03/28 09:11:25;;;;;;;5.97;4.47;;;;;;;-145.79;57.44;79527.16;5304293;28;20060;-76
2023/03/28 09:14:18;;;;;;;12.73;5.93;;;;;;;-145.79;57.61;79518.69;5284506;28;20044;-76
2023/03/28 09:17:09;;;;;;;10.57;4.70;;;;;;;-145.79;56.65;79514.44;5295057;28;20024;-75
2023/03/28 09:19:59;;;;;;;7.22;3.35;;;;;;;-145.79;55.19;79527.16;5302154;28;20635;-75
2023/03/28 09:22:55;;;;;;;5.32;3.15;;;;;;;-145.79;54.67;79529.28;5282163;28;20141;-74
2023/03/28 09:25:47;;;;;;;8.57;3.30;;;;;;;-145.79;54.55;79514.44;5283640;28;20072;-75
2023/03/28 09:28:27;;;;;;;9.07;3.72;;;;;;;-145.79;55.02;79505.94;5283997;28;20024;-75
2023/03/28 09:30:59;;;;;;;9.52;3.38;;;;;;;-145.79;54.78;79503.81;5303899;28;20509;-74
2023/03/28 09:33:37;;;;;;;8.63;2.70;;;;;;;-145.79;53.80;79501.72;5287992;28;20024;-75
2023/03/28 09:36:15;;;;;;;64.10;47.50;;;;;;;-145.79;54.19;79497.47;5282350;28;20029;-74
2023/03/28 09:38:52;;;;;;;5.45;2.90;;;;;;;-145.79;53.00;79514.44;5283236;28;20467;-74
2023/03/28 09:41:30;;;;;;;9.73;3.20;;;;;;;-145.79;53.17;79503.81;5283315;28;20024;-74
2023/03/28 09:44:03;;;;;;;12.77;3.30;;;;;;;-145.79;52.71;79501.72;5281953;28;20055;-74
2023/03/28 09:46:39;;;;;;;12.98;3.83;;;;;;;-145.79;52.35;79497.47;5293143;28;20049;-75
2023/03/28 09:49:18;;;;;;;4.95;3.08;;;;;;;-145.79;52.13;79505.94;5304302;28;20024;-75
2023/03/28 09:51:56;;;;;;;5.38;3.10;;;;;;;-145.79;52.57;79497.47;5279521;28;20036;-74
2023/03/28 09:54:33;;;;;;;7.45;4.35;;;;;;;-145.79;52.04;79482.63;5294198;28;20025;-75
2023/03/28 09:57:05;;;;;;;8.88;3.55;;;;;;;-145.79;52.47;79474.13;5302969;28;20062;-74
2023/03/28 09:59:37;;;;;;;6.28;3.42;;;;;;;-145.79;53.51;79455.06;5293485;28;20111;-77
2023/03/28 10:02:31;;;;;;;6.75;2.65;;;;;;;-145.79;52.72;79433.84;5296829;28;20039;-73
2023/03/28 10:05:34;;;;;;;6.40;2.50;;;;;;;-145.79;52.04;79425.34;5289010;28;20554;-72
2023/03/28 10:08:24;;;;;;;8.98;3.17;;;;;;;-145.79;50.83;79427.47;5300515;28;20055;-72
2023/03/28 10:10:59;;;;;;;5.60;2.60;;;;;;;-145.79;51.39;79404.16;5295664;28;20490;-74
2023/03/28 10:13:41;;;;;;;7.30;2.72;;;;;;;-145.79;49.91;79399.91;5289213;28;20032;-71
2023/03/28 10:16:19;;;;;;;7.68;2.22;;;;;;;-145.79;48.57;79408.41;5283008;28;20048;-74
2023/03/28 10:18:51;;;;;;;42.40;29.20;;;;;;;-145.79;48.74;79382.94;5296163;28;20355;-71
2023/03/28 10:21:29;;;;;;;5.55;3.10;;;;;;;-145.79;49.31;79382.94;5296285;28;20044;-72
2023/03/28 10:24:06;;;;;;;8.65;2.75;;;;;;;-145.79;48.99;79382.94;5290611;28;20021;-73
2023/03/28 10:26:38;;;;;;;5.03;2.80;;;;;;;-145.79;49.20;79374.47;5281283;28;20515;-72
2023/03/28 10:29:12;;;;;;;8.82;3.50;;;;;;;-145.79;47.83;79374.47;5280116;28;20112;-72
2023/03/28 10:31:48;;;;;;;9.27;2.45;;;;;;;-145.79;46.70;79357.50;5286015;28;20029;-71
2023/03/28 10:34:26;;;;;;;7.82;2.38;;;;;;;-145.79;46.48;79340.53;5281458;28;20062;-71
2023/03/28 10:36:57;;;;;;;8.60;3.72;;;;;;;-145.79;45.81;79334.16;5281262;28;20025;-71
2023/03/28 10:39:31;;;;;;;5.15;2.08;;;;;;;-145.79;45.54;79323.56;5281078;28;20036;-71
2023/03/28 10:42:11;;;;;;;4.53;2.13;;;;;;;-145.79;46.18;79310.84;5282166;28;20025;-72
2023/03/28 10:44:56;;;;;;;10.80;3.03;;;;;;;-145.79;45.53;79306.59;5282067;28;20035;-72
2023/03/28 10:47:30;;;;;;;6.70;2.25;;;;;;;-145.79;46.58;79279.03;5281540;28;20066;-72
2023/03/28 10:50:02;;;;;;;5.95;2.75;;;;;;;-145.79;46.28;79281.16;5282033;28;20120;-72
2023/03/28 10:52:53;;;;;;;5.53;2.10;;;;;;;-145.79;46.47;79279.03;5282648;28;20024;-71
2023/03/28 10:55:35;;;;;;;4.93;2.53;;;;;;;-145.79;46.25;79257.81;5282256;28;20090;-72
2023/03/28 10:58:28;;;;;;;6.57;2.78;;;;;;;-145.79;44.93;79247.22;5281874;28;20044;-71
2023/03/28 11:01:16;;;;;;;4.75;2.50;;;;;;;-145.79;44.58;79259.94;5281318;28;20025;-72
2023/03/28 11:04:03;;;;;;;6.10;2.40;;;;;;;-145.79;45.01;79249.34;5281652;28;20367;-69
2023/03/28 11:07:09;;;;;;;7.28;2.60;;;;;;;-145.79;44.59;79221.78;5281551;28;20055;-72
2023/03/28 11:10:05;;;;;;;5.78;2.60;;;;;;;-145.79;44.53;79192.09;5234096;28;20373;-70
2023/03/28 11:12:55;;;;;;;6.63;3.25;;;;;;;-145.79;45.23;79185.72;5282008;28;20119;-70
2023/03/28 11:15:56;;;;;;;6.68;3.10;;;;;;;-145.79;44.26;79179.38;5281144;28;20535;-72
2023/03/28 11:18:46;;;;;;;7.50;3.33;;;;;;;-145.79;45.17;79170.88;5281073;28;20098;-72
2023/03/28 11:21:41;;;;;;;5.13;2.85;;;;;;;-145.79;45.28;79162.41;5280400;28;20040;-72
2023/03/28 11:24:42;;;;;;;6.55;2.97;;;;;;;-145.79;44.32;79151.81;5281640;28;20029;-74
2023/03/28 11:27:25;;;;;;;8.07;2.63;;;;;;;-145.79;43.59;79145.44;5286998;28;20416;-73
2023/03/28 11:30:09;;;;;;;5.45;2.85;;;;;;;-145.79;44.42;79113.63;5280063;28;20047;-79
2023/03/28 11:32:54;;;;;;;6.03;3.28;;;;;;;-145.79;44.73;79090.31;5281046;28;20112;-78
2023/03/28 11:35:31;;;;;;;7.68;3.45;;;;;;;-145.79;43.67;79077.56;5287127;28;20032;-79
2023/03/28 11:38:08;;;;;;;10.98;4.25;;;;;;;-145.79;42.38;79071.22;5302623;28;20028;-80
2023/03/28 11:40:55;;;;;;;7.57;2.53;;;;;;;-145.79;44.81;79064.84;5303115;28;20340;-85
2023/03/28 11:43:33;;;;;;;6.53;3.17;;;;;;;-145.79;42.07;79058.50;5300939;28;20126;-85
2023/03/28 11:46:10;;;;;;;10.20;2.67;;;;;;;-145.79;43.45;79030.94;5286395;28;20035;-81
2023/03/28 11:48:53;;;;;;;6.07;2.60;;;;;;;-145.79;43.01;79005.47;5281559;28;20036;-80
2023/03/28 11:51:31;;;;;;;6.00;2.50;;;;;;;-145.79;44.66;78960.94;5280112;28;20031;-75
2023/03/28 11:54:10;;;;;;;5.03;2.30;;;;;;;-145.79;42.26;78941.88;5281310;28;20029;-75
2023/03/28 11:57:10;;;;;;;3.88;2.63;;;;;;;-145.79;41.52;78950.34;5280355;28;20024;-74
2023/03/28 12:00:03;;;;;;;7.72;2.95;;;;;;;-145.79;44.12;78937.63;5280722;28;20062;-74
2023/03/28 12:02:46;;;;;;;4.38;3.47;;;;;;;-145.79;41.00;78944.00;5281413;28;20037;-79
2023/03/28 12:05:31;;;;;;;4.97;2.33;;;;;;;-145.79;39.76;78937.63;5280716;28;20069;-81
2023/03/28 12:08:12;;;;;;;5.00;2.43;;;;;;;-145.79;39.92;78933.38;5281985;28;20410;-79
2023/03/28 12:10:50;;;;;;;5.93;3.03;;;;;;;-145.79;43.94;78899.47;5283823;28;20048;-79
2023/03/28 12:13:44;;;;;;;8.43;2.30;;;;;;;-145.79;39.72;78916.41;5304759;28;20573;-73
2023/03/28 12:16:29;;;;;;;6.45;2.65;;;;;;;-145.79;40.14;78916.41;5305820;28;20783;-73
2023/03/28 12:19:05;;;;;;;5.60;2.83;;;;;;;-145.79;39.37;78920.66;5297875;28;20078;-73
2023/03/28 12:21:42;;;;;;;6.78;2.67;;;;;;;-145.79;39.45;78914.31;5284199;28;20131;-74
2023/03/28 12:24:34;;;;;;;6.50;2.53;;;;;;;-145.79;39.81;78895.22;5284800;28;20020;-72
2023/03/28 12:27:24;;;;;;;8.93;4.50;;;;;;;-145.79;40.03;78895.22;5285295;28;20036;-72
2023/03/28 12:30:10;;;;;;;3.70;2.63;;;;;;;-145.79;39.39;78890.97;5283964;28;20043;-73
2023/03/28 12:32:52;;;;;;;6.93;2.63;;;;;;;-145.79;39.44;78890.97;5283439;28;20378;-73
2023/03/28 12:35:42;;;;;;;6.35;2.60;;;;;;;-145.79;39.78;78876.13;5285572;28;20375;-73
2023/03/28 12:38:41;;;;;;;6.78;2.58;;;;;;;-145.79;39.41;78848.56;5305334;28;20107;-73
2023/03/28 12:41:20;;;;;;;4.97;2.42;;;;;;;-145.79;39.72;78821.00;5303288;28;20031;-73
2023/03/28 12:43:59;;;;;;;6.25;2.92;;;;;;;-145.79;38.83;78812.53;5305614;28;20101;-72
2023/03/28 12:46:44;;;;;;;5.97;2.53;;;;;;;-145.79;38.72;78801.91;5304535;28;20028;-74
2023/03/28 12:49:40;;;;;;;5.47;2.20;;;;;;;-145.79;39.07;78793.44;5296440;28;20033;-74
2023/03/28 12:52:21;;;;;;;7.82;4.65;;;;;;;-145.79;39.00;78808.28;5289085;28;20451;-74
2023/03/28 12:54:59;;;;;;;9.45;3.20;;;;;;;-145.79;38.35;78814.63;5283595;28;20036;-74
2023/03/28 12:57:40;;;;;;;6.18;2.60;;;;;;;-145.79;38.09;78814.63;5284449;28;20401;-75
2023/03/28 13:00:27;;;;;;;20.95;14.60;;;;;;;-145.79;37.75;78814.63;5286509;28;20051;-74
2023/03/28 13:03:45;;;;;;;7.85;3.08;;;;;;;-145.79;38.31;78804.03;5304565;28;20035;-73
2023/03/28 13:06:35;;;;;;;5.50;2.47;;;;;;;-145.79;38.51;78797.69;5293406;28;20067;-74
2023/03/28 13:09:50;;;;;;;7.55;3.03;;;;;;;-145.79;39.03;78782.84;5284449;28;20024;-73
2023/03/28 13:12:36;;;;;;;3.83;2.05;;;;;;;-145.79;38.96;78799.81;5283713;28;20078;-71
2023/03/28 13:15:13;;;;;;;6.85;2.58;;;;;;;-145.79;39.33;78801.91;5282603;28;20118;-72
2023/03/28 13:17:47;;;;;;;3.92;2.15;;;;;;;-145.79;43.73;78772.22;5283397;28;20360;-78
2023/03/28 13:20:21;;;;;;;6.38;3.00;;;;;;;-145.79;38.94;78799.81;5286877;28;20371;-72
2023/03/28 13:22:59;;;;;;;7.90;2.85;;;;;;;-145.79;39.20;78789.19;5303322;28;20058;-73
2023/03/28 13:25:32;;;;;;;4.55;2.50;;;;;;;-145.79;38.08;78797.69;5303729;28;20505;-74
2023/03/28 13:28:12;;;;;;;6.45;2.40;;;;;;;-145.79;37.75;78772.22;5287383;28;20040;-73
2023/03/28 13:30:45;;;;;;;5.03;2.50;;;;;;;-145.79;37.74;78778.59;5281895;28;20122;-73
2023/03/28 13:33:26;;;;;;;5.53;2.80;;;;;;;-145.79;37.83;78770.13;5290697;28;20024;-71
2023/03/28 13:35:57;;;;;;;8.02;2.60;;;;;;;-145.79;38.30;78770.13;5301882;28;20115;-73
2023/03/28 13:38:28;;;;;;;7.15;2.63;;;;;;;-145.79;38.50;78770.13;5292335;28;20126;-71
2023/03/28 13:41:01;;;;;;;6.60;2.20;;;;;;;-145.79;39.14;78746.78;5293602;28;20055;-71
2023/03/28 13:43:32;;;;;;;5.38;2.50;;;;;;;-145.79;38.41;78714.97;5300112;28;20039;-71
2023/03/28 13:46:22;;;;;;;7.35;2.30;;;;;;;-145.79;37.96;78687.41;5298521;28;20509;-72
2023/03/28 13:49:09;;;;;;;5.72;3.88;;;;;;;-145.79;37.40;78655.63;5301742;28;20109;-73
2023/03/28 13:51:55;;;;;;;10.02;2.67;;;;;;;-145.79;37.04;78649.25;5286418;28;20043;-72
2023/03/28 13:54:29;;;;;;;8.55;3.60;;;;;;;-145.79;36.91;78647.13;5283498;28;20468;-72
2023/03/28 13:57:07;;;;;;;4.80;1.90;;;;;;;-145.79;36.78;78645.00;5293538;28;20238;-72
2023/03/28 13:59:48;;;;;;;6.40;2.45;;;;;;;-145.79;37.19;78657.75;5288551;28;20027;-72
2023/03/28 14:02:35;;;;;;;4.75;3.30;;;;;;;-145.79;37.54;78640.78;5301551;28;20069;-73
2023/03/28 14:05:19;;;;;;;6.78;3.70;;;;;;;-145.79;37.11;78632.28;5297374;28;20478;-73
2023/03/28 14:07:52;;;;;;;4.47;2.72;;;;;;;-145.79;37.52;78632.28;5293854;28;20033;-73
2023/03/28 14:10:35;;;;;;;2.25;2.05;;;;;;;-145.79;37.48;78630.16;5301417;28;20355;-74
2023/03/28 14:13:13;;;;;;;4.97;2.50;;;;;;;-145.79;37.77;78645.00;5305347;28;20031;-72
2023/03/28 14:15:45;;;;;;;3.90;2.00;;;;;;;-145.79;37.41;78653.50;5301673;28;20040;-72
2023/03/28 14:18:27;;;;;;;3.10;2.17;;;;;;;-145.79;37.78;78640.78;5300160;28;20055;-73
2023/03/28 14:20:59;;;;;;;4.43;2.05;;;;;;;-145.79;37.79;78640.78;5302651;28;20048;-73
2023/03/28 14:23:35;;;;;;;6.00;2.60;;;;;;;-145.79;37.41;78645.00;5302560;28;20024;-72
2023/03/28 14:26:12;;;;;;;;;;;;;;;-145.79;38.29;78623.81;5302912;28;20709;-71
2023/03/28 14:28:44;;;;;;;5.65;2.47;;;;;;;-145.79;37.49;78638.66;5301382;28;19920;-72
2023/03/28 14:31:37;;;;;;;7.10;2.60;;;;;;;-145.79;38.03;78623.81;5301408;28;20027;-76
2023/03/28 14:34:16;;;;;;;5.22;2.40;;;;;;;-145.79;37.39;78630.16;5300272;28;20539;-73
2023/03/28 14:37:07;;;;;;;6.88;2.25;;;;;;;-145.79;37.51;78632.28;5281661;28;20094;-73
2023/03/28 14:39:38;;;;;;;4.13;2.08;;;;;;;-145.79;37.57;78628.06;5281486;28;20016;-73
2023/03/28 14:42:18;;;;;;;5.30;2.28;;;;;;;-145.79;37.72;78630.16;5282488;28;20498;-73
2023/03/28 14:44:53;;;;;;;4.78;2.35;;;;;;;-145.79;37.71;78615.34;5282206;28;20099;-73
2023/03/28 14:47:26;;;;;;;4.30;2.20;;;;;;;-145.79;37.47;78615.34;5287749;28;20391;-77
2023/03/28 14:50:00;;;;;;;2.78;1.90;;;;;;;-145.79;38.09;78623.81;5299144;28;20028;-73
2023/03/28 14:52:35;;;;;;;5.30;2.70;;;;;;;-145.79;38.75;78611.09;5290305;28;20062;-73
2023/03/28 14:55:13;;;;;;;22.77;17.15;;;;;;;-145.79;38.63;78604.72;5281892;28;20056;-73
2023/03/28 14:57:52;;;;;;;5.18;3.10;;;;;;;-145.79;37.69;78604.72;5281601;28;20028;-74
2023/03/28 15:00:34;;;;;;;3.25;2.35;;;;;;;-145.79;37.76;78594.13;5284415;28;20028;-72
2023/03/28 15:03:11;;;;;;;5.15;2.45;;;;;;;-145.79;38.34;78583.53;5281657;28;20119;-73
2023/03/28 15:05:44;;;;;;;5.95;2.55;;;;;;;-145.79;38.54;78589.88;5281189;28;20060;-73
2023/03/28 15:08:27;;;;;;;3.95;2.20;;;;;;;-145.79;38.55;78598.38;5281139;28;20041;-74
2023/03/28 15:11:02;;;;;;;5.35;2.55;;;;;;;-145.79;39.00;78585.66;5291284;28;20032;-73
2023/03/28 15:13:44;;;;;;;4.80;3.20;;;;;;;-145.79;39.33;78587.75;5302048;28;20028;-74
2023/03/28 15:16:22;;;;;;;4.32;2.50;;;;;;;-145.79;38.95;78587.75;5302509;28;20028;-75
2023/03/28 15:19:07;;;;;;;6.22;2.92;;;;;;;-145.79;39.58;78577.16;5302672;28;20758;-73
2023/03/28 15:21:41;;;;;;;5.27;3.10;;;;;;;-145.79;39.75;78564.44;5301717;28;20048;-74
2023/03/28 15:24:17;;;;;;;6.07;3.15;;;;;;;-145.79;40.17;78551.72;5301002;28;20069;-74
2023/03/28 15:26:52;;;;;;;5.88;2.88;;;;;;;-145.79;40.10;78555.97;5288529;28;20094;-74
2023/03/28 15:29:25;;;;;;;5.35;2.70;;;;;;;-145.79;40.72;78551.72;5281110;28;20040;-73
2023/03/28 15:32:06;;;;;;;7.30;2.88;;;;;;;-145.79;40.06;78555.97;5281073;28;20035;-73
2023/03/28 15:34:44;;;;;;;6.28;2.40;;;;;;;-145.79;40.71;78551.72;5281056;28;20027;-75
2023/03/28 15:37:20;;;;;;;6.10;2.50;;;;;;;-145.79;40.48;78551.72;5281428;28;20024;-76
2023/03/28 15:39:52;;;;;;;6.13;2.80;;;;;;;-145.79;40.70;78547.47;5293037;28;20101;-75
2023/03/28 15:42:33;;;;;;;5.97;2.90;;;;;;;-145.79;41.15;78549.59;5298352;28;20040;-74
2023/03/28 15:45:22;;;;;;;7.10;3.10;;;;;;;-145.79;40.96;78545.38;5285761;28;20062;-74
2023/03/28 15:47:54;;;;;;;3.80;2.67;;;;;;;-145.79;42.53;78549.59;5285566;28;20039;-74
2023/03/28 15:50:34;;;;;;;6.10;2.55;;;;;;;-145.79;42.17;78558.09;5303817;28;20035;-74
2023/03/28 15:53:13;;;;;;;5.40;2.67;;;;;;;-145.79;43.04;78547.47;5306638;28;20028;-75
2023/03/28 15:55:46;;;;;;;5.80;3.15;;;;;;;-145.79;43.06;78551.72;5290804;28;20020;-75
2023/03/28 15:58:20;;;;;;;23.80;18.25;;;;;;;-145.79;43.09;78568.69;5285713;28;20021;-73
2023/03/28 16:00:52;;;;;;;13.10;10.57;;;;;;;-145.79;43.20;78564.44;5285834;28;20379;-73
2023/03/28 16:03:31;;;;;;;5.55;2.88;;;;;;;-145.79;43.71;78564.44;5292572;28;20058;-73
2023/03/28 16:06:23;;;;;;;7.05;2.97;;;;;;;-145.79;43.81;78568.69;5306122;28;20065;-73
2023/03/28 16:09:19;;;;;;;4.47;2.90;;;;;;;-145.79;44.46;78560.19;5288785;28;20432;-73
2023/03/28 16:11:59;;;;;;;6.03;4.50;;;;;;;-145.79;44.19;78555.97;5284320;28;20483;-73
2023/03/28 16:14:31;;;;;;;4.32;2.80;;;;;;;-145.79;44.20;78560.19;5285079;28;20392;-74
2023/03/28 16:17:06;;;;;;;5.18;2.53;;;;;;;-145.79;44.37;78555.97;5290929;28;20020;-74
2023/03/28 16:19:37;;;;;;;4.30;2.80;;;;;;;-145.79;44.98;78560.19;5302565;28;20159;-73
2023/03/28 16:22:09;;;;;;;4.13;2.78;;;;;;;-145.79;44.73;78549.59;5296934;28;20558;-73
2023/03/28 16:24:40;;;;;;;7.20;3.30;;;;;;;-145.79;45.35;78558.09;5284149;28;20028;-72
2023/03/28 16:27:11;;;;;;;7.72;3.30;;;;;;;-145.79;44.92;78555.97;5300384;28;20030;-73
2023/03/28 16:29:43;;;;;;;5.45;3.20;;;;;;;-145.79;44.75;78553.84;5305752;28;20024;-73
2023/03/28 16:32:15;;;;;;;5.78;3.05;;;;;;;-145.79;44.67;78560.19;5304988;28;20512;-73
2023/03/28 16:34:47;;;;;;;8.00;3.53;;;;;;;-145.79;44.34;78560.19;5292652;28;20486;-71
2023/03/28 16:37:18;;;;;;;5.65;3.03;;;;;;;-145.79;44.23;78577.16;5290717;28;20016;-72
2023/03/28 16:39:50;;;;;;;8.55;3.47;;;;;;;-145.79;44.93;78577.16;5301520;28;20115;-72
2023/03/28 16:42:23;;;;;;;7.22;3.08;;;;;;;-145.79;44.95;78577.16;5293501;28;20494;-73
2023/03/28 16:44:54;;;;;;;4.60;2.58;;;;;;;-145.79;44.80;78585.66;5305063;28;20463;-73
2023/03/28 16:47:27;;;;;;;5.80;2.63;;;;;;;-145.79;45.29;78585.66;5291190;28;20057;-73
2023/03/28 16:50:01;;;;;;;6.65;2.90;;;;;;;-145.79;45.41;78585.66;5299679;28;20031;-71
2023/03/28 16:52:39;;;;;;;6.80;2.88;;;;;;;-145.79;45.53;78598.38;5284499;28;20017;-70
